Time;durP1;ratioP1;P1;durP2;ratioP2;P2;SDS_P1;SDS_P2;PMS_P1;PMS_P2;Temp;Humidity;BMP_temperature;BMP_pressure;BME280_temperature;BME280_humidity;BME280_pressure;Samples;Min_cycle;Max_cycle;Signal;HPM_P1;HPM_P2
2022/12/28 00:00:10;;;;;;;8.55;5.75;;;5.60;99.90;;;;;;4993152;28;20042;-35
2022/12/28 00:02:35;;;;;;;9.18;4.82;;;5.60;99.90;;;;;;4994195;28;20125;-35
2022/12/28 00:05:01;;;;;;;5.57;3.97;;;5.60;99.90;;;;;;4996091;28;20121;-35
2022/12/28 00:07:27;;;;;;;6.28;4.63;;;5.60;99.90;;;;;;4997382;28;20487;-35
2022/12/28 00:09:52;;;;;;;8.38;4.38;;;5.60;99.90;;;;;;5006950;28;20046;-35
2022/12/28 00:12:18;;;;;;;8.77;4.40;;;5.60;99.90;;;;;;4995304;28;20396;-35
2022/12/28 00:14:44;;;;;;;9.30;4.95;;;5.60;99.90;;;;;;4995707;28;20061;-35
2022/12/28 00:17:10;;;;;;;9.52;4.85;;;5.50;99.90;;;;;;4994181;28;20443;-35
2022/12/28 00:19:35;;;;;;;9.02;4.43;;;5.50;99.90;;;;;;4996644;28;20029;-35
2022/12/28 00:22:01;;;;;;;12.55;5.55;;;5.50;99.90;;;;;;4995625;28;20124;-35
2022/12/28 00:24:27;;;;;;;9.13;5.70;;;5.50;99.90;;;;;;4993848;28;20034;-35
2022/12/28 00:26:55;;;;;;;7.63;5.05;;;5.50;99.90;;;;;;4999816;28;20496;-35
2022/12/28 00:29:21;;;;;;;8.65;5.95;;;5.50;99.90;;;;;;5009853;28;20053;-35
2022/12/28 00:31:47;;;;;;;10.95;5.95;;;5.50;99.90;;;;;;4998270;28;20029;-36
2022/12/28 00:34:13;;;;;;;9.68;4.72;;;5.50;99.90;;;;;;4993574;28;20125;-36
2022/12/28 00:36:38;;;;;;;7.25;4.88;;;5.50;99.90;;;;;;4993791;28;20034;-36
2022/12/28 00:39:04;;;;;;;8.20;5.60;;;5.40;99.90;;;;;;4994143;28;20041;-37
2022/12/28 00:41:30;;;;;;;10.45;6.43;;;5.50;99.90;;;;;;4993390;28;20042;-37
2022/12/28 00:43:56;;;;;;;10.90;6.00;;;5.50;99.90;;;;;;4993796;28;20124;-36
2022/12/28 00:46:21;;;;;;;12.05;5.68;;;5.50;99.90;;;;;;5004357;28;20038;-36
2022/12/28 00:48:47;;;;;;;8.93;6.32;;;5.40;99.90;;;;;;4994152;28;20046;-36
2022/12/28 00:51:18;;;;;;;7.75;5.40;;;5.50;99.90;;;;;;4977253;28;20045;-37
2022/12/28 00:53:44;;;;;;;9.07;5.72;;;5.50;99.90;;;;;;4993333;28;20077;-36
2022/12/28 00:56:14;;;;;;;9.27;4.93;;;5.50;99.90;;;;;;4993582;28;20041;-37
2022/12/28 00:58:40;;;;;;;12.20;6.20;;;5.50;99.90;;;;;;4993738;28;20026;-37
2022/12/28 01:01:12;;;;;;;12.93;5.40;;;5.50;99.90;;;;;;4996817;28;20462;-37
2022/12/28 01:03:37;;;;;;;8.57;5.43;;;5.50;99.90;;;;;;4986481;28;20030;-36
2022/12/28 01:06:07;;;;;;;9.75;5.95;;;5.50;99.90;;;;;;4996264;28;20036;-36
2022/12/28 01:08:35;;;;;;;8.15;5.47;;;5.50;99.90;;;;;;4997738;28;20384;-36
2022/12/28 01:11:09;;;;;;;7.05;5.18;;;5.50;99.90;;;;;;5009383;28;20042;-37
2022/12/28 01:13:35;;;;;;;11.02;6.05;;;5.50;99.90;;;;;;4999076;28;20049;-35
2022/12/28 01:16:22;;;;;;;9.70;6.13;;;5.50;99.90;;;;;;4998710;28;20100;-35
2022/12/28 01:18:51;;;;;;;9.45;5.88;;;5.50;99.90;;;;;;4998612;28;20048;-35
2022/12/28 01:21:20;;;;;;;12.55;6.28;;;5.50;99.90;;;;;;4998049;28;20041;-35
2022/12/28 01:23:47;;;;;;;12.77;5.88;;;5.50;99.90;;;;;;4998330;28;20484;-35
2022/12/28 01:26:13;;;;;;;10.63;5.70;;;5.50;99.90;;;;;;4998167;28;20104;-35
2022/12/28 01:28:39;;;;;;;14.07;6.70;;;5.60;99.90;;;;;;4997947;28;20053;-35
2022/12/28 01:31:07;;;;;;;13.18;6.50;;;5.60;99.90;;;;;;4997989;28;20053;-36
2022/12/28 01:33:33;;;;;;;9.95;6.03;;;5.60;99.90;;;;;;4999832;28;20040;-36
2022/12/28 01:36:08;;;;;;;13.25;6.20;;;5.60;99.90;;;;;;5021759;28;20046;-39
2022/12/28 01:38:35;;;;;;;10.07;5.95;;;5.60;99.90;;;;;;4998408;28;20067;-37
2022/12/28 01:41:01;;;;;;;12.10;6.05;;;5.60;99.90;;;;;;4999556;28;20092;-37
2022/12/28 01:43:47;;;;;;;9.80;6.57;;;5.60;99.90;;;;;;4998497;28;20061;-37
2022/12/28 01:46:16;;;;;;;9.20;5.80;;;5.60;99.90;;;;;;5009621;28;20091;-36
2022/12/28 01:49:05;;;;;;;7.72;5.88;;;5.60;99.90;;;;;;4988663;28;20034;-37
2022/12/28 01:51:36;;;;;;;10.55;5.93;;;5.60;99.90;;;;;;4997075;28;20472;-37
2022/12/28 01:54:03;;;;;;;8.15;5.63;;;5.60;99.90;;;;;;4999873;28;20034;-35
2022/12/28 01:56:29;;;;;;;11.40;6.20;;;5.60;99.90;;;;;;4996084;28;20037;-35
2022/12/28 01:58:56;;;;;;;10.98;5.57;;;5.70;99.90;;;;;;4999650;28;20038;-35
2022/12/28 02:01:22;;;;;;;9.77;5.75;;;5.70;99.90;;;;;;4999021;28;20046;-36
2022/12/28 02:03:48;;;;;;;8.07;5.75;;;5.70;99.90;;;;;;4999789;28;20562;-36
2022/12/28 02:06:14;;;;;;;7.78;5.47;;;5.70;99.90;;;;;;4999715;28;20042;-37
2022/12/28 02:08:52;;;;;;;8.50;6.13;;;5.80;99.90;;;;;;4996660;28;20045;-36
2022/12/28 02:11:18;;;;;;;8.55;5.35;;;5.80;99.90;;;;;;4996234;28;20105;-37
2022/12/28 02:13:47;;;;;;;7.88;5.88;;;5.80;99.90;;;;;;4998252;28;20447;-36
2022/12/28 02:16:13;;;;;;;9.50;6.13;;;5.90;99.90;;;;;;4995659;28;20109;-37
2022/12/28 02:18:41;;;;;;;8.98;5.30;;;5.90;99.90;;;;;;4996994;28;20072;-37
2022/12/28 02:21:16;;;;;;;8.15;5.22;;;5.90;99.90;;;;;;4996300;28;20050;-37
2022/12/28 02:23:51;;;;;;;10.38;5.45;;;6.00;99.90;;;;;;4997358;28;20030;-37
2022/12/28 02:26:50;;;;;;;11.45;5.45;;;6.00;99.90;;;;;;5015537;28;20042;-36
2022/12/28 02:29:26;;;;;;;11.05;5.57;;;6.00;99.90;;;;;;5017846;28;20045;-37
2022/12/28 02:32:29;;;;;;;9.20;6.13;;;6.00;99.90;;;;;;4997867;28;20073;-37
2022/12/28 02:35:16;;;;;;;6.60;5.43;;;6.00;99.90;;;;;;4993309;28;20069;-37
2022/12/28 02:37:53;;;;;;;8.80;5.68;;;6.00;99.90;;;;;;5001864;28;20044;-37
2022/12/28 02:40:42;;;;;;;9.55;6.28;;;6.00;99.90;;;;;;5011472;28;20081;-37
2022/12/28 02:43:07;;;;;;;10.05;6.47;;;5.90;99.90;;;;;;5010137;28;20052;-36
2022/12/28 02:51:38;;;;;;;8.55;6.28;;;6.00;99.90;;;;;;5018445;28;20084;-36
2022/12/28 02:58:02;;;;;;;12.30;7.60;;;6.00;99.90;;;;;;4973907;28;20072;-37
2022/12/28 03:00:41;;;;;;;13.90;7.40;;;6.00;99.90;;;;;;4995671;28;20503;-37
2022/12/28 03:03:14;;;;;;;12.98;8.43;;;6.00;99.90;;;;;;5008349;28;20527;-37
2022/12/28 03:08:55;;;;;;;14.43;7.60;;;6.00;99.90;;;;;;5014075;28;20065;-37
2022/12/28 03:11:46;;;;;;;11.05;8.60;;;6.00;99.90;;;;;;4995286;28;20072;-37
2022/12/28 03:14:32;;;;;;;10.48;6.97;;;6.00;99.90;;;;;;5012608;28;20040;-37
2022/12/28 03:31:16;;;;;;;9.93;6.88;;;6.20;99.90;;;;;;5011612;28;20406;-38
2022/12/28 03:33:48;;;;;;;12.50;7.95;;;6.20;99.90;;;;;;4994913;28;20523;-37
2022/12/28 03:36:44;;;;;;;10.05;6.65;;;6.20;99.90;;;;;;4995024;28;20479;-37
2022/12/28 03:39:23;;;;;;;12.05;8.07;;;6.30;99.90;;;;;;4997410;28;20045;-38
2022/12/28 03:45:10;;;;;;;8.73;7.25;;;6.30;99.90;;;;;;5006805;28;20057;-37
2022/12/28 03:47:38;;;;;;;14.00;8.20;;;6.30;99.90;;;;;;4994422;28;20042;-38
2022/12/28 03:50:05;;;;;;;8.95;7.18;;;6.40;99.90;;;;;;4994228;28;20069;-38
2022/12/28 03:52:31;;;;;;;9.35;7.15;;;6.40;99.90;;;;;;4995724;28;20034;-37
2022/12/28 03:54:58;;;;;;;12.30;7.40;;;6.40;99.90;;;;;;4994087;28;20038;-38
2022/12/28 03:57:23;;;;;;;11.93;7.50;;;6.40;99.90;;;;;;4997373;28;20045;-38
2022/12/28 03:59:49;;;;;;;9.93;6.93;;;6.40;99.90;;;;;;4998829;28;20042;-38
2022/12/28 04:02:15;;;;;;;18.40;10.10;;;6.50;99.90;;;;;;4994131;28;20038;-38
2022/12/28 04:04:40;;;;;;;12.70;8.32;;;6.50;99.90;;;;;;5010076;28;20034;-38
2022/12/28 04:07:06;;;;;;;17.85;9.55;;;6.50;99.90;;;;;;4994494;28;20091;-38
2022/12/28 04:09:33;;;;;;;15.90;10.20;;;6.50;99.90;;;;;;4994190;28;20037;-38
2022/12/28 04:11:58;;;;;;;16.75;9.73;;;6.50;99.90;;;;;;4994025;28;20522;-38
2022/12/28 04:14:24;;;;;;;11.48;8.25;;;6.50;99.90;;;;;;4993751;28;20029;-38
2022/12/28 04:16:50;;;;;;;11.07;6.97;;;6.50;99.90;;;;;;4993803;28;20038;-38
2022/12/28 04:19:15;;;;;;;18.30;10.18;;;6.60;99.90;;;;;;4993959;28;20117;-38
2022/12/28 04:21:59;;;;;;;15.43;10.75;;;6.50;99.90;;;;;;5011362;28;20042;-38
2022/12/28 04:24:26;;;;;;;8.32;6.88;;;6.60;99.90;;;;;;4996326;28;20050;-38
2022/12/28 04:26:52;;;;;;;8.68;6.40;;;6.60;99.90;;;;;;4995877;28;20096;-38
2022/12/28 04:29:18;;;;;;;12.00;7.95;;;6.60;99.90;;;;;;5003104;28;20395;-38
2022/12/28 04:31:44;;;;;;;10.05;7.32;;;6.60;99.90;;;;;;5021846;28;20114;-38
2022/12/28 04:34:10;;;;;;;7.72;6.75;;;6.60;99.90;;;;;;4980552;28;20045;-38
2022/12/28 04:36:37;;;;;;;8.75;6.70;;;6.70;99.90;;;;;;4996002;28;20046;-38
2022/12/28 04:39:02;;;;;;;9.70;7.07;;;6.70;99.90;;;;;;4982553;28;20029;-38
2022/12/28 04:41:28;;;;;;;8.63;6.68;;;6.70;99.90;;;;;;5015228;28;20053;-38
2022/12/28 04:43:54;;;;;;;8.30;6.50;;;6.70;99.90;;;;;;5001266;28;20041;-38
2022/12/28 04:46:20;;;;;;;8.77;6.80;;;6.70;99.90;;;;;;5008756;28;20069;-38
2022/12/28 04:48:46;;;;;;;7.32;6.13;;;6.70;99.90;;;;;;4999511;28;20080;-38
2022/12/28 04:51:18;;;;;;;8.02;5.25;;;6.70;99.90;;;;;;4966348;28;20037;-38
2022/12/28 04:53:44;;;;;;;7.10;5.30;;;6.70;99.90;;;;;;5029195;28;20038;-37
2022/12/28 04:56:11;;;;;;;6.13;5.50;;;6.80;99.90;;;;;;4999402;28;20156;-38
2022/12/28 04:58:38;;;;;;;7.32;5.93;;;6.80;99.90;;;;;;4998316;28;20113;-37
2022/12/28 05:01:09;;;;;;;6.90;5.68;;;6.80;99.90;;;;;;5012166;28;20068;-37
2022/12/28 05:03:35;;;;;;;6.85;5.65;;;6.80;99.90;;;;;;4999851;28;20111;-37
2022/12/28 05:06:09;;;;;;;7.65;5.82;;;6.80;99.90;;;;;;4998074;28;20034;-37
2022/12/28 05:08:35;;;;;;;;;;;6.90;99.90;;;;;;4998871;28;20048;-37
2022/12/28 05:11:02;;;;;;;6.40;4.93;;;6.80;99.90;;;;;;5002163;28;19976;-38
2022/12/28 05:13:28;;;;;;;6.90;6.20;;;6.90;99.90;;;;;;5018266;28;20426;-37
2022/12/28 05:15:59;;;;;;;7.28;6.50;;;6.90;99.90;;;;;;5004502;28;20029;-38
2022/12/28 05:18:24;;;;;;;9.73;6.30;;;6.90;99.90;;;;;;4997596;28;20034;-38
2022/12/28 05:21:02;;;;;;;8.38;6.25;;;6.90;99.90;;;;;;5012181;28;20048;-37
2022/12/28 05:23:29;;;;;;;11.77;8.32;;;6.90;99.90;;;;;;4998106;28;20038;-38
2022/12/28 05:25:55;;;;;;;8.18;7.07;;;7.00;99.90;;;;;;5009637;28;20049;-37
2022/12/28 05:28:22;;;;;;;8.60;6.63;;;7.00;99.90;;;;;;5007930;28;20038;-37
2022/12/28 05:30:47;;;;;;;11.52;7.30;;;7.00;99.90;;;;;;4997980;28;20129;-37
2022/12/28 05:33:13;;;;;;;8.88;7.22;;;7.00;99.90;;;;;;4993249;28;20444;-37
2022/12/28 05:35:39;;;;;;;8.80;7.70;;;7.10;99.90;;;;;;4997903;28;20128;-38
2022/12/28 05:38:04;;;;;;;10.25;8.93;;;7.10;99.90;;;;;;4998214;28;20087;-37
2022/12/28 05:40:30;;;;;;;9.57;8.07;;;7.10;99.90;;;;;;4999843;28;20557;-38
2022/12/28 05:42:56;;;;;;;8.65;7.78;;;7.10;99.90;;;;;;5009127;28;20037;-38
2022/12/28 05:45:21;;;;;;;8.20;7.20;;;7.20;99.90;;;;;;5027783;28;20048;-38
2022/12/28 05:47:47;;;;;;;8.45;7.65;;;7.20;99.90;;;;;;5003457;28;20550;-38
2022/12/28 05:50:13;;;;;;;9.35;7.80;;;7.20;99.90;;;;;;5013666;28;20354;-38
2022/12/28 05:52:39;;;;;;;9.13;6.95;;;7.30;99.90;;;;;;4995954;28;20084;-37
2022/12/28 05:55:05;;;;;;;9.73;7.93;;;7.30;99.90;;;;;;5014980;28;20399;-37
2022/12/28 05:57:31;;;;;;;10.27;8.52;;;7.30;99.90;;;;;;5011010;28;20040;-37
2022/12/28 05:59:56;;;;;;;8.95;7.47;;;7.40;99.90;;;;;;4996892;28;20045;-37
2022/12/28 06:02:26;;;;;;;10.07;8.90;;;7.40;99.90;;;;;;4997120;28;20034;-37
2022/12/28 06:04:56;;;;;;;9.75;8.02;;;7.40;99.90;;;;;;4997130;28;20063;-38
2022/12/28 06:07:24;;;;;;;9.52;8.00;;;7.40;99.90;;;;;;4997472;28;20487;-38
2022/12/28 06:09:50;;;;;;;10.27;8.52;;;7.40;99.90;;;;;;4997557;28;20500;-38
2022/12/28 06:12:16;;;;;;;11.15;8.73;;;7.40;99.90;;;;;;5008380;28;20052;-37
2022/12/28 06:14:42;;;;;;;9.80;8.80;;;7.50;99.90;;;;;;4997354;28;20037;-37
2022/12/28 06:17:08;;;;;;;11.88;9.10;;;7.50;99.90;;;;;;4997055;28;20445;-38
2022/12/28 06:19:33;;;;;;;11.90;8.27;;;7.50;99.90;;;;;;4980878;28;20046;-37
2022/12/28 06:21:59;;;;;;;12.65;9.43;;;7.50;99.90;;;;;;4996810;28;20049;-38
2022/12/28 06:24:25;;;;;;;10.10;9.02;;;7.60;99.90;;;;;;4996693;28;20534;-38
2022/12/28 06:26:50;;;;;;;10.90;8.20;;;7.60;99.90;;;;;;5005690;28;20124;-36
2022/12/28 06:29:16;;;;;;;12.40;10.18;;;7.60;99.90;;;;;;4998028;28;20635;-37
2022/12/28 06:31:46;;;;;;;11.05;9.00;;;7.60;99.90;;;;;;5004872;28;20093;-38
2022/12/28 06:34:12;;;;;;;11.98;9.20;;;7.60;99.90;;;;;;4996351;28;20038;-38
2022/12/28 06:36:40;;;;;;;12.43;9.20;;;7.60;99.90;;;;;;5005618;28;20045;-38
2022/12/28 06:39:09;;;;;;;11.40;9.63;;;7.70;99.90;;;;;;4995959;28;20038;-38
2022/12/28 06:41:35;;;;;;;12.88;10.18;;;7.70;99.90;;;;;;4994696;28;20069;-38
2022/12/28 06:44:04;;;;;;;11.18;9.57;;;7.70;99.90;;;;;;5010709;28;20049;-38
2022/12/28 06:46:30;;;;;;;13.80;10.88;;;7.70;99.90;;;;;;4995121;28;20060;-38
2022/12/28 06:48:56;;;;;;;14.13;10.20;;;7.70;99.90;;;;;;4995756;28;20037;-38
2022/12/28 06:51:28;;;;;;;12.88;10.43;;;7.70;99.90;;;;;;4987066;28;20080;-39
2022/12/28 06:53:54;;;;;;;12.30;9.43;;;7.70;99.90;;;;;;4995078;28;20038;-40
2022/12/28 06:56:25;;;;;;;13.65;10.50;;;7.70;99.90;;;;;;5021034;28;20077;-39
2022/12/28 06:58:52;;;;;;;14.35;10.88;;;7.80;99.90;;;;;;4997067;28;20540;-39
2022/12/28 07:01:22;;;;;;;13.57;10.60;;;7.80;99.90;;;;;;4989696;28;20069;-39
2022/12/28 07:03:51;;;;;;;12.65;11.30;;;7.80;99.90;;;;;;4996844;28;20406;-39
2022/12/28 07:06:19;;;;;;;17.92;13.02;;;7.80;99.90;;;;;;4995539;28;20060;-39
2022/12/28 07:08:45;;;;;;;17.58;13.65;;;7.80;99.90;;;;;;4999370;28;20096;-39
2022/12/28 07:11:16;;;;;;;14.40;11.05;;;7.80;99.90;;;;;;4995417;28;20074;-37
2022/12/28 07:13:42;;;;;;;16.08;12.68;;;7.90;99.90;;;;;;4979839;28;20080;-37
2022/12/28 07:16:17;;;;;;;15.80;12.75;;;7.90;99.90;;;;;;5012379;28;20446;-37
2022/12/28 07:18:42;;;;;;;15.70;12.50;;;7.90;99.90;;;;;;4995933;28;20034;-40
2022/12/28 07:21:13;;;;;;;16.42;12.73;;;7.90;99.90;;;;;;5012101;28;20049;-37
2022/12/28 07:23:39;;;;;;;15.55;12.65;;;7.90;99.90;;;;;;4995666;28;20128;-37
2022/12/28 07:26:06;;;;;;;18.90;14.00;;;8.00;99.90;;;;;;4995529;28;20133;-37
2022/12/28 07:28:34;;;;;;;14.13;10.85;;;8.00;99.90;;;;;;5013307;28;20045;-37
2022/12/28 07:31:06;;;;;;;17.58;13.75;;;8.00;99.90;;;;;;4995399;28;20061;-36
2022/12/28 07:33:32;;;;;;;14.88;12.57;;;8.00;99.90;;;;;;4995791;28;20394;-37
2022/12/28 07:35:58;;;;;;;18.20;13.48;;;8.10;99.90;;;;;;4995475;28;20095;-37
2022/12/28 07:38:23;;;;;;;17.73;13.23;;;8.10;99.90;;;;;;4995641;28;20041;-37
2022/12/28 07:40:49;;;;;;;16.58;13.45;;;8.10;99.90;;;;;;4995648;28;20037;-37
2022/12/28 07:43:15;;;;;;;19.83;13.65;;;8.10;99.90;;;;;;4995515;28;20041;-37
2022/12/28 07:45:43;;;;;;;18.58;13.70;;;8.10;99.90;;;;;;4995278;28;20048;-37
2022/12/28 07:48:10;;;;;;;18.63;15.55;;;8.10;99.90;;;;;;4995372;28;20526;-37
2022/12/28 07:50:36;;;;;;;17.88;14.60;;;8.20;99.90;;;;;;4994734;28;20119;-37
2022/12/28 07:53:01;;;;;;;19.83;14.43;;;8.20;99.90;;;;;;4995892;28;20065;-37
2022/12/28 07:55:30;;;;;;;17.40;14.88;;;8.20;99.90;;;;;;4992654;28;20450;-39
2022/12/28 07:57:55;;;;;;;17.73;14.35;;;8.20;99.90;;;;;;4977920;28;20470;-39
2022/12/28 08:00:21;;;;;;;19.75;14.88;;;8.20;99.90;;;;;;4995061;28;20117;-39
2022/12/28 08:02:47;;;;;;;17.67;13.82;;;8.20;99.90;;;;;;4994655;28;20039;-39
2022/12/28 08:05:13;;;;;;;20.05;14.52;;;8.30;99.90;;;;;;4993672;28;20038;-39
2022/12/28 08:07:38;;;;;;;19.83;14.13;;;8.30;99.90;;;;;;4991181;28;20065;-39
2022/12/28 08:10:05;;;;;;;20.85;14.98;;;8.30;99.90;;;;;;4999576;28;20045;-39
2022/12/28 08:12:30;;;;;;;19.02;14.65;;;8.30;99.90;;;;;;4994201;28;20108;-39
2022/12/28 08:14:59;;;;;;;18.13;14.18;;;8.30;99.90;;;;;;4993936;28;20120;-39
2022/12/28 08:17:25;;;;;;;20.55;14.70;;;8.30;99.90;;;;;;4992423;28;20130;-39
2022/12/28 08:19:51;;;;;;;18.15;14.52;;;8.30;99.90;;;;;;4996875;28;20138;-39
2022/12/28 08:22:17;;;;;;;20.60;15.77;;;8.30;99.90;;;;;;4994754;28;20033;-39
2022/12/28 08:24:42;;;;;;;15.20;13.60;;;8.30;99.90;;;;;;5010558;28;20049;-39
2022/12/28 08:27:08;;;;;;;19.90;15.02;;;8.40;99.90;;;;;;4994808;28;20052;-41
2022/12/28 08:29:34;;;;;;;21.90;16.05;;;8.40;99.90;;;;;;4997623;28;20068;-37
2022/12/28 08:31:59;;;;;;;18.42;13.55;;;8.40;99.90;;;;;;4995352;28;20546;-37
2022/12/28 08:34:26;;;;;;;20.08;16.00;;;8.30;99.90;;;;;;4999422;28;20071;-37
2022/12/28 08:36:53;;;;;;;18.83;14.63;;;8.30;99.90;;;;;;5011473;28;20426;-38
2022/12/28 08:39:19;;;;;;;16.25;13.00;;;8.30;99.90;;;;;;5006419;28;20038;-38
2022/12/28 08:41:45;;;;;;;15.45;12.90;;;8.30;99.90;;;;;;5010311;28;20377;-38
2022/12/28 08:44:10;;;;;;;16.73;12.50;;;8.40;99.90;;;;;;5013147;28;20038;-37
2022/12/28 08:46:36;;;;;;;12.25;10.73;;;8.40;99.90;;;;;;4995988;28;20041;-38
2022/12/28 08:49:04;;;;;;;15.45;11.57;;;8.40;99.90;;;;;;5011596;28;20454;-37
2022/12/28 08:51:35;;;;;;;13.93;11.63;;;8.40;99.90;;;;;;4993908;28;20061;-37
2022/12/28 08:54:02;;;;;;;18.40;11.48;;;8.40;99.90;;;;;;4993614;28;20116;-37
2022/12/28 08:56:31;;;;;;;13.73;11.25;;;8.40;99.90;;;;;;4995740;28;20406;-37
2022/12/28 08:58:58;;;;;;;12.48;10.40;;;8.40;99.90;;;;;;4995444;28;20038;-38
2022/12/28 09:01:26;;;;;;;14.23;10.43;;;8.50;99.90;;;;;;5011039;28;20113;-37
2022/12/28 09:03:55;;;;;;;13.52;10.55;;;8.50;99.90;;;;;;5012882;28;20074;-37
2022/12/28 09:06:24;;;;;;;16.42;11.68;;;8.40;99.90;;;;;;4994653;28;20037;-37
2022/12/28 09:08:55;;;;;;;15.30;11.68;;;8.50;99.90;;;;;;4994158;28;20065;-37
2022/12/28 09:11:21;;;;;;;13.20;10.45;;;8.50;99.90;;;;;;4975963;28;20052;-37
2022/12/28 09:13:47;;;;;;;14.27;10.82;;;8.50;99.90;;;;;;5014231;28;20479;-38
2022/12/28 09:16:15;;;;;;;11.82;10.00;;;8.50;99.90;;;;;;4994579;28;20117;-38
2022/12/28 09:18:42;;;;;;;13.63;10.60;;;8.50;99.90;;;;;;4997515;28;20038;-38
2022/12/28 09:21:17;;;;;;;14.82;11.18;;;8.50;99.90;;;;;;4993068;28;20384;-38
2022/12/28 09:23:45;;;;;;;12.73;11.25;;;8.60;99.90;;;;;;4996568;28;20034;-38
2022/12/28 09:26:17;;;;;;;12.57;10.35;;;8.60;99.90;;;;;;4995769;28;20042;-38
2022/12/28 09:28:47;;;;;;;11.75;9.95;;;8.60;99.90;;;;;;5014791;28;20042;-38
2022/12/28 09:31:13;;;;;;;12.32;10.25;;;8.60;99.90;;;;;;4999847;28;20044;-38
2022/12/28 09:33:57;;;;;;;11.40;8.77;;;8.60;99.90;;;;;;4999321;28;20033;-38
2022/12/28 09:36:24;;;;;;;12.85;10.43;;;8.60;99.90;;;;;;5000785;28;20038;-38
2022/12/28 09:38:51;;;;;;;12.90;10.02;;;8.70;99.90;;;;;;4998626;28;20038;-38
2022/12/28 09:41:39;;;;;;;13.85;11.00;;;8.70;99.90;;;;;;5005993;28;20056;-38
2022/12/28 09:44:23;;;;;;;13.80;10.05;;;8.70;99.90;;;;;;4996645;28;20038;-38
2022/12/28 09:46:58;;;;;;;14.90;10.90;;;8.70;99.90;;;;;;5014583;28;20045;-40
2022/12/28 09:50:00;;;;;;;14.90;11.60;;;8.70;99.90;;;;;;5001023;28;20034;-40
2022/12/28 09:52:45;;;;;;;14.55;11.48;;;8.80;99.90;;;;;;4998851;28;20143;-43
2022/12/28 09:55:16;;;;;;;15.38;11.07;;;8.80;99.90;;;;;;4997018;28;20038;-40
2022/12/28 09:57:49;;;;;;;16.85;12.30;;;8.80;99.90;;;;;;4997625;28;20123;-39
2022/12/28 10:00:18;;;;;;;14.27;11.18;;;8.80;99.90;;;;;;5007133;28;20045;-44
2022/12/28 10:02:51;;;;;;;13.63;10.82;;;8.80;99.90;;;;;;4994971;28;20029;-42
2022/12/28 10:05:19;;;;;;;14.43;10.63;;;8.80;99.90;;;;;;4999144;28;20034;-40
2022/12/28 10:07:45;;;;;;;13.60;11.00;;;8.80;99.90;;;;;;4998898;28;20276;-40
2022/12/28 10:10:19;;;;;;;14.50;9.82;;;8.80;99.90;;;;;;5007663;28;20044;-40
2022/12/28 10:12:46;;;;;;;11.23;8.73;;;8.80;99.90;;;;;;4990429;28;20577;-43
2022/12/28 10:15:14;;;;;;;16.05;11.15;;;8.80;99.90;;;;;;4993041;28;20045;-39
2022/12/28 10:17:40;;;;;;;11.15;8.70;;;8.90;99.90;;;;;;4988607;28;20049;-39
2022/12/28 10:20:13;;;;;;;11.82;9.60;;;8.90;99.90;;;;;;4998149;28;20035;-40
2022/12/28 10:22:41;;;;;;;12.82;9.00;;;8.90;99.90;;;;;;4987954;28;20538;-40
2022/12/28 10:25:19;;;;;;;11.00;9.63;;;8.90;99.90;;;;;;5013272;28;20043;-40
2022/12/28 10:27:45;;;;;;;10.43;8.88;;;8.90;99.90;;;;;;5009506;28;20088;-42
2022/12/28 10:30:44;;;;;;;11.25;9.45;;;9.00;99.90;;;;;;4996325;28;20038;-44
2022/12/28 10:33:16;;;;;;;9.77;8.25;;;9.00;99.90;;;;;;4995093;28;20034;-40
2022/12/28 10:35:50;;;;;;;10.98;9.05;;;9.00;99.90;;;;;;5010617;28;20076;-40
2022/12/28 10:38:21;;;;;;;13.30;8.35;;;9.00;99.90;;;;;;4995457;28;20034;-39
2022/12/28 10:40:55;;;;;;;10.75;8.70;;;9.00;99.90;;;;;;4995131;28;20053;-38
2022/12/28 10:43:21;;;;;;;10.90;9.05;;;9.10;99.90;;;;;;4997592;28;20040;-38
2022/12/28 10:45:49;;;;;;;11.07;8.32;;;9.00;99.90;;;;;;4995464;28;20041;-38
2022/12/28 10:48:24;;;;;;;9.65;8.18;;;9.10;99.90;;;;;;4995784;28;20041;-39
2022/12/28 10:50:58;;;;;;;7.60;6.43;;;9.10;99.90;;;;;;4995363;28;20053;-39
2022/12/28 10:53:45;;;;;;;10.80;8.32;;;9.00;99.90;;;;;;4995480;28;20042;-39
2022/12/28 10:56:13;;;;;;;10.18;8.20;;;9.00;99.90;;;;;;4994827;28;20042;-38
2022/12/28 10:58:41;;;;;;;7.88;6.93;;;9.00;99.90;;;;;;4987270;28;20558;-39
2022/12/28 11:01:13;;;;;;;8.93;7.63;;;9.00;99.90;;;;;;4995165;28;20112;-39
2022/12/28 11:03:55;;;;;;;9.10;7.60;;;9.10;99.90;;;;;;4998567;28;20423;-39
2022/12/28 11:06:32;;;;;;;8.48;7.45;;;9.00;99.90;;;;;;5011846;28;20096;-39
2022/12/28 11:09:12;;;;;;;8.55;6.85;;;9.00;99.90;;;;;;4995523;28;20046;-38
2022/12/28 11:11:38;;;;;;;7.82;6.85;;;9.00;99.90;;;;;;4994397;28;20026;-39
2022/12/28 11:14:33;;;;;;;8.50;7.07;;;9.00;99.90;;;;;;5005039;28;20034;-39
2022/12/28 11:17:20;;;;;;;8.57;6.35;;;9.00;99.90;;;;;;4995976;28;20395;-37
2022/12/28 11:19:49;;;;;;;9.25;6.80;;;9.00;99.90;;;;;;4998165;28;20030;-37
2022/12/28 11:22:22;;;;;;;7.55;6.80;;;9.00;99.90;;;;;;4996129;28;20049;-37
2022/12/28 11:24:47;;;;;;;9.45;7.05;;;9.00;99.90;;;;;;4997747;28;20038;-37
2022/12/28 11:27:17;;;;;;;7.70;6.40;;;9.10;99.90;;;;;;4987546;28;20109;-37
2022/12/28 11:29:46;;;;;;;7.97;6.53;;;9.10;99.90;;;;;;4996330;28;20065;-37
2022/12/28 11:32:23;;;;;;;7.13;6.30;;;9.00;99.90;;;;;;4994670;28;20139;-37
2022/12/28 11:34:51;;;;;;;9.05;7.10;;;9.10;99.90;;;;;;4988838;28;20180;-37
2022/12/28 11:37:17;;;;;;;7.13;6.20;;;9.10;99.90;;;;;;4999082;28;20030;-37
2022/12/28 11:39:48;;;;;;;8.45;6.72;;;9.10;99.90;;;;;;4994467;28;20045;-38
2022/12/28 11:42:35;;;;;;;6.15;5.53;;;9.10;99.90;;;;;;4994303;28;20049;-37
2022/12/28 11:45:15;;;;;;;8.50;5.90;;;9.10;99.90;;;;;;4998303;28;20062;-37
2022/12/28 11:47:42;;;;;;;9.13;6.25;;;9.10;99.90;;;;;;4994883;28;20496;-37
2022/12/28 11:50:50;;;;;;;5.63;5.03;;;9.10;99.90;;;;;;5000367;28;20451;-37
2022/12/28 11:53:30;;;;;;;5.95;5.00;;;9.10;99.90;;;;;;4966181;28;20057;-37
2022/12/28 11:56:08;;;;;;;5.88;5.18;;;9.10;99.90;;;;;;4971478;28;20039;-38
2022/12/28 11:58:39;;;;;;;6.82;5.68;;;9.10;99.90;;;;;;5003339;28;20042;-37
2022/12/28 12:01:39;;;;;;;6.93;5.57;;;9.20;99.90;;;;;;4995309;28;20052;-40
2022/12/28 12:04:10;;;;;;;6.55;5.60;;;9.10;99.90;;;;;;5009140;28;20050;-39
2022/12/28 12:06:42;;;;;;;6.20;5.35;;;9.10;99.90;;;;;;5001650;28;20483;-39
2022/12/28 12:09:20;;;;;;;5.15;4.65;;;9.10;99.90;;;;;;5010402;28;20049;-39
2022/12/28 12:11:48;;;;;;;7.22;5.20;;;9.10;99.90;;;;;;4995552;28;20052;-40
2022/12/28 12:14:36;;;;;;;5.88;5.28;;;9.10;99.90;;;;;;4992771;28;20447;-39
2022/12/28 12:17:27;;;;;;;8.55;5.05;;;9.10;99.90;;;;;;4997550;28;20044;-39
2022/12/28 12:19:57;;;;;;;5.90;4.97;;;9.10;99.90;;;;;;5012663;28;20041;-39
2022/12/28 12:22:46;;;;;;;6.78;5.15;;;9.10;99.90;;;;;;4996709;28;20061;-40
2022/12/28 12:25:36;;;;;;;7.35;6.13;;;9.10;99.90;;;;;;4978373;28;21346;-40
2022/12/28 12:28:36;;;;;;;9.63;7.03;;;9.10;99.90;;;;;;4993228;28;20392;-39
2022/12/28 12:31:07;;;;;;;10.02;7.88;;;9.10;99.90;;;;;;4989568;28;20120;-39
2022/12/28 12:33:36;;;;;;;6.63;5.93;;;9.00;99.90;;;;;;4994354;28;20041;-39
2022/12/28 12:36:52;;;;;;;7.65;6.30;;;9.00;99.90;;;;;;5005116;28;20037;-39
2022/12/28 12:39:47;;;;;;;7.28;5.95;;;9.00;99.90;;;;;;4976209;28;20074;-39
2022/12/28 12:42:12;;;;;;;6.93;6.28;;;9.00;99.90;;;;;;4937790;28;20154;-39
2022/12/28 12:45:02;;;;;;;4.93;3.90;;;9.10;99.90;;;;;;4992432;28;20041;-40
2022/12/28 12:47:48;;;;;;;4.68;4.18;;;9.10;99.90;;;;;;4992857;28;20026;-39
2022/12/28 12:50:34;;;;;;;6.03;5.10;;;9.10;99.90;;;;;;4994389;28;20101;-39
2022/12/28 12:53:02;;;;;;;5.28;4.75;;;9.10;99.90;;;;;;4981943;28;20050;-39
2022/12/28 12:55:56;;;;;;;7.32;6.22;;;9.10;99.90;;;;;;4993028;28;20042;-39
2022/12/28 12:58:43;;;;;;;5.30;4.70;;;9.00;99.90;;;;;;4994585;28;20407;-40
2022/12/28 13:01:51;;;;;;;4.70;4.30;;;9.00;99.90;;;;;;5011211;28;20041;-39
2022/12/28 13:04:24;;;;;;;4.50;3.63;;;9.10;99.90;;;;;;4989268;28;20042;-39
2022/12/28 13:06:58;;;;;;;4.55;4.15;;;9.00;99.90;;;;;;4999364;28;20041;-39
2022/12/28 13:09:24;;;;;;;;;;;9.10;99.90;;;;;;4999512;28;20038;-39
2022/12/28 13:11:50;;;;;;;4.75;4.22;;;9.10;99.90;;;;;;4998861;28;19931;-39
2022/12/28 13:14:19;;;;;;;5.32;3.70;;;9.10;99.90;;;;;;4997286;28;20095;-39
2022/12/28 13:16:54;;;;;;;5.20;3.97;;;9.10;99.90;;;;;;4997215;28;20442;-39
2022/12/28 13:19:29;;;;;;;3.40;3.10;;;9.10;99.90;;;;;;4999719;28;20399;-39
2022/12/28 13:21:57;;;;;;;4.00;3.55;;;9.10;99.90;;;;;;5000642;28;20045;-39
2022/12/28 13:24:29;;;;;;;4.00;3.05;;;9.10;99.90;;;;;;4997893;28;20087;-39
2022/12/28 13:26:57;;;;;;;2.97;2.67;;;9.10;99.90;;;;;;4996297;28;20038;-39
2022/12/28 13:29:26;;;;;;;4.20;3.80;;;9.10;99.90;;;;;;5000099;28;20641;-39
2022/12/28 13:31:52;;;;;;;3.50;3.30;;;9.10;99.90;;;;;;4997622;28;20458;-39
2022/12/28 13:34:22;;;;;;;4.07;3.38;;;9.10;99.90;;;;;;4994820;28;20120;-39
2022/12/28 13:36:55;;;;;;;3.38;3.03;;;9.10;99.90;;;;;;5011530;28;20052;-39
2022/12/28 13:39:22;;;;;;;3.40;3.10;;;9.10;99.90;;;;;;4997134;28;20038;-39